createdAt,value
2023-03-21T00:01:52.400Z,101421.94
2023-03-21T00:04:20.478Z,101410.88
2023-03-21T00:06:47.431Z,101417.44
2023-03-21T00:09:14.452Z,101408.78
2023-03-21T00:11:41.709Z,101402.25
2023-03-21T00:14:09.046Z,101401.19
2023-03-21T00:16:36.905Z,101403.66
2023-03-21T00:19:06.445Z,101397.56
2023-03-21T00:21:52.230Z,101391.41
2023-03-21T00:24:23.592Z,101387.13
2023-03-21T00:26:51.976Z,101390.47
2023-03-21T00:29:19.235Z,101393.78
2023-03-21T00:31:46.235Z,101384.97
2023-03-21T00:36:45.334Z,101376.56
2023-03-21T00:39:12.332Z,101384.81
2023-03-21T00:41:43.142Z,101379.59
2023-03-21T00:44:15.551Z,101370.91
2023-03-21T00:46:49.356Z,101365.66
2023-03-21T00:49:24.184Z,101363.03
2023-03-21T00:51:51.761Z,101356.00
2023-03-21T00:54:19.013Z,101351.41
2023-03-21T00:56:45.999Z,101352.50
2023-03-21T00:59:13.142Z,101347.72
2023-03-21T01:01:40.186Z,101351.09
2023-03-21T01:04:13.275Z,101345.72
2023-03-21T01:06:42.983Z,101343.72
2023-03-21T01:09:17.948Z,101337.56
2023-03-21T01:11:45.942Z,101332.03
2023-03-21T01:14:22.338Z,101331.34
2023-03-21T01:16:52.906Z,101327.44
2023-03-21T01:19:29.127Z,101323.94
2023-03-21T01:22:00.662Z,101323.69
2023-03-21T01:24:27.658Z,101313.75
2023-03-21T01:26:54.651Z,101309.28
2023-03-21T01:29:21.667Z,101315.56
2023-03-21T01:31:48.950Z,101300.25
2023-03-21T01:34:16.161Z,101297.63
2023-03-21T01:36:43.241Z,101288.88
2023-03-21T01:39:10.529Z,101289.28
2023-03-21T01:41:44.017Z,101280.75
2023-03-21T01:44:19.623Z,101276.31
2023-03-21T01:47:07.421Z,101283.31
2023-03-21T01:49:48.051Z,101280.56
2023-03-21T01:52:40.583Z,101277.88
2023-03-21T01:55:12.822Z,101281.75
2023-03-21T01:58:02.082Z,101273.16
2023-03-21T02:00:33.403Z,101268.25
2023-03-21T02:03:13.768Z,101267.31
2023-03-21T02:06:05.704Z,101258.69
2023-03-21T02:08:39.470Z,101265.03
2023-03-21T02:11:10.176Z,101248.78
2023-03-21T02:13:37.667Z,101247.69
2023-03-21T02:16:23.170Z,101254.78
2023-03-21T02:19:20.125Z,101255.28
2023-03-21T02:22:54.407Z,101239.09
2023-03-21T02:26:06.656Z,101233.88
2023-03-21T02:28:58.468Z,101237.13
2023-03-21T02:31:47.743Z,101233.00
2023-03-21T02:34:41.966Z,101242.38
2023-03-21T02:37:28.978Z,101228.59
2023-03-21T02:40:25.669Z,101233.41
2023-03-21T02:43:07.193Z,101236.28
2023-03-21T02:45:55.249Z,101220.88
2023-03-21T02:49:05.027Z,101223.75
2023-03-21T02:51:33.949Z,101224.69
2023-03-21T02:54:30.305Z,101221.19
2023-03-21T02:57:04.650Z,101221.72
2023-03-21T02:59:35.724Z,101216.22
2023-03-21T03:02:06.070Z,101210.53
2023-03-21T03:04:33.087Z,101210.59
2023-03-21T03:07:18.470Z,101210.06
2023-03-21T03:10:06.871Z,101211.38
2023-03-21T03:13:25.309Z,101218.88
2023-03-21T03:16:30.658Z,101225.28
2023-03-21T03:19:00.886Z,101210.03
2023-03-21T03:21:38.178Z,101213.47
2023-03-21T03:24:31.869Z,101210.09
2023-03-21T03:27:06.566Z,101212.13
2023-03-21T03:29:38.058Z,101210.28
2023-03-21T03:32:30.817Z,101216.00
2023-03-21T03:34:58.457Z,101215.41
2023-03-21T03:37:29.817Z,101213.44
2023-03-21T03:40:03.375Z,101212.97
2023-03-21T03:42:47.504Z,101211.81
2023-03-21T03:45:14.706Z,101219.81
2023-03-21T03:48:07.409Z,101210.28
2023-03-21T03:50:47.096Z,101206.78
2023-03-21T03:53:42.257Z,101216.31
2023-03-21T03:56:11.608Z,101218.22
2023-03-21T03:58:45.741Z,101206.34
2023-03-21T04:01:14.061Z,101207.16
2023-03-21T04:03:49.741Z,101205.16
2023-03-21T04:06:19.609Z,101204.59
2023-03-21T04:08:46.926Z,101201.09
2023-03-21T04:11:18.060Z,101204.25
2023-03-21T04:13:45.015Z,101192.78
2023-03-21T04:16:13.009Z,101186.72
2023-03-21T04:18:41.235Z,101183.75
2023-03-21T04:21:12.872Z,101177.94
2023-03-21T04:23:41.164Z,101176.38
2023-03-21T04:26:09.119Z,101171.97
2023-03-21T04:28:37.074Z,101169.34
2023-03-21T04:31:22.710Z,101175.34
2023-03-21T04:33:52.560Z,101177.84
2023-03-21T04:36:39.233Z,101178.81
2023-03-21T04:39:12.384Z,101172.88
2023-03-21T04:41:41.614Z,101184.94
2023-03-21T04:44:09.255Z,101184.81
2023-03-21T04:46:36.348Z,101182.91
2023-03-21T04:49:04.174Z,101194.75
2023-03-21T04:51:31.483Z,101191.66
2023-03-21T04:53:58.609Z,101184.31
2023-03-21T04:56:32.259Z,101174.69
2023-03-21T04:59:03.162Z,101178.09
2023-03-21T05:01:30.933Z,101171.81
2023-03-21T05:04:03.149Z,101167.81
2023-03-21T05:06:32.133Z,101170.69
2023-03-21T05:09:01.477Z,101179.47
2023-03-21T05:11:32.009Z,101168.53
2023-03-21T05:14:02.160Z,101170.25
2023-03-21T05:16:30.894Z,101154.63
2023-03-21T05:19:03.827Z,101157.91
2023-03-21T05:21:41.694Z,101156.00
2023-03-21T05:24:15.668Z,101149.91
2023-03-21T05:26:44.042Z,101155.19
2023-03-21T05:29:11.597Z,101147.44
2023-03-21T05:31:38.642Z,101141.75
2023-03-21T05:34:06.386Z,101139.34
2023-03-21T05:36:57.313Z,101130.34
2023-03-21T05:39:24.294Z,101124.44
2023-03-21T05:41:51.356Z,101132.22
2023-03-21T05:44:18.251Z,101126.72
2023-03-21T05:46:45.439Z,101134.53
2023-03-21T05:49:12.848Z,101130.34
2023-03-21T05:51:39.813Z,101128.03
2023-03-21T05:54:07.575Z,101129.81
2023-03-21T05:56:34.659Z,101127.22
2023-03-21T05:59:02.340Z,101129.69
2023-03-21T06:01:29.277Z,101137.69
2023-03-21T06:03:56.277Z,101131.63
2023-03-21T06:06:23.424Z,101135.53
2023-03-21T06:08:50.392Z,101128.38
2023-03-21T06:11:26.963Z,101130.91
2023-03-21T06:13:53.951Z,101138.25
2023-03-21T06:16:20.964Z,101124.56
2023-03-21T06:18:47.987Z,101143.44
2023-03-21T06:21:15.357Z,101120.13
2023-03-21T06:23:42.391Z,101145.88
2023-03-21T06:26:09.487Z,101137.50
2023-03-21T06:28:36.567Z,101142.63
2023-03-21T06:31:03.910Z,101135.94
2023-03-21T06:33:31.127Z,101145.03
2023-03-21T06:35:59.386Z,101131.25
2023-03-21T06:38:26.676Z,101123.44
2023-03-21T06:40:53.998Z,101133.09
2023-03-21T06:43:20.990Z,101135.63
2023-03-21T06:45:47.951Z,101123.19
2023-03-21T06:48:14.894Z,101111.97
2023-03-21T06:50:42.152Z,101123.97
2023-03-21T06:53:09.785Z,101113.03
2023-03-21T06:55:37.105Z,101126.81
2023-03-21T06:58:04.166Z,101117.34
2023-03-21T07:00:31.522Z,101121.22
2023-03-21T07:02:58.793Z,101119.47
2023-03-21T07:05:27.088Z,101116.34
2023-03-21T07:07:54.080Z,101114.84
2023-03-21T07:10:21.190Z,101113.19
2023-03-21T07:12:48.135Z,101107.91
2023-03-21T07:15:15.113Z,101101.50
2023-03-21T07:17:42.053Z,101103.28
2023-03-21T07:20:12.566Z,101101.81
2023-03-21T07:22:40.005Z,101094.84
2023-03-21T07:25:08.301Z,101091.34
2023-03-21T07:27:35.443Z,101090.88
2023-03-21T07:30:06.277Z,101102.56
2023-03-21T07:32:35.479Z,101097.31
2023-03-21T07:35:03.388Z,101098.78
2023-03-21T07:37:30.646Z,101100.47
2023-03-21T07:39:57.634Z,101101.19
2023-03-21T07:42:24.590Z,101097.75
2023-03-21T07:44:52.713Z,101092.56
2023-03-21T07:47:19.726Z,101098.91
2023-03-21T07:49:46.737Z,101099.28
2023-03-21T07:52:13.770Z,101094.66
2023-03-21T07:54:40.715Z,101092.25
2023-03-21T07:57:07.613Z,101086.00
2023-03-21T07:59:34.816Z,101088.88
2023-03-21T08:02:01.741Z,101076.59
2023-03-21T08:04:29.025Z,101081.25
2023-03-21T08:06:57.367Z,101074.72
2023-03-21T08:09:24.375Z,101079.94
2023-03-21T08:11:51.456Z,101069.63
2023-03-21T08:14:18.356Z,101061.81
2023-03-21T08:16:45.417Z,101069.50
2023-03-21T08:19:12.464Z,101066.59
2023-03-21T08:21:39.506Z,101073.81
2023-03-21T08:24:07.150Z,101063.03
2023-03-21T08:26:34.276Z,101071.75
2023-03-21T08:29:01.777Z,101060.44
2023-03-21T08:31:28.700Z,101066.47
2023-03-21T08:33:58.744Z,101058.91
2023-03-21T08:36:26.152Z,101055.56
2023-03-21T08:38:57.014Z,101040.34
2023-03-21T08:41:25.986Z,101046.09
2023-03-21T08:43:52.931Z,101042.88
2023-03-21T08:46:19.927Z,101044.31
2023-03-21T08:48:46.992Z,101041.44
2023-03-21T08:51:13.965Z,101046.34
2023-03-21T08:53:41.657Z,101042.47
2023-03-21T08:56:09.209Z,101046.16
2023-03-21T08:58:36.663Z,101043.09
2023-03-21T09:01:06.967Z,101046.97
2023-03-21T09:03:34.116Z,101038.38
2023-03-21T09:06:03.557Z,101038.38
2023-03-21T09:08:31.013Z,101052.88
2023-03-21T09:10:58.346Z,101077.78
2023-03-21T09:13:25.600Z,101075.38
2023-03-21T09:15:54.098Z,101064.38
2023-03-21T09:18:22.621Z,101074.63
2023-03-21T09:20:50.518Z,101067.00
2023-03-21T09:23:18.279Z,101063.72
2023-03-21T09:25:46.236Z,101053.53
2023-03-21T09:28:14.444Z,101056.97
2023-03-21T09:30:41.614Z,101064.53
2023-03-21T09:33:19.229Z,101061.03
2023-03-21T09:35:46.210Z,101053.03
2023-03-21T09:38:13.233Z,101075.38
2023-03-21T09:41:23.869Z,101069.63
2023-03-21T09:44:09.065Z,101074.16
2023-03-21T09:47:14.261Z,101077.84
2023-03-21T09:49:50.278Z,101060.84
2023-03-21T09:52:24.466Z,101063.13
2023-03-21T09:54:52.946Z,101056.78
2023-03-21T09:57:35.617Z,101051.09
2023-03-21T10:00:14.336Z,101051.28
2023-03-21T10:02:48.045Z,101056.38
2023-03-21T10:05:23.603Z,101063.56
2023-03-21T10:08:04.687Z,101065.59
2023-03-21T10:10:54.210Z,101081.53
2023-03-21T10:13:26.976Z,101093.75
2023-03-21T10:16:35.359Z,101095.22
2023-03-21T10:19:14.228Z,101100.34
2023-03-21T10:22:03.340Z,101102.91
2023-03-21T10:24:34.358Z,101102.16
2023-03-21T10:27:03.774Z,101106.09
2023-03-21T10:29:43.908Z,101113.31
2023-03-21T10:32:15.637Z,101109.69
2023-03-21T10:34:51.679Z,101096.72
2023-03-21T10:37:18.734Z,101096.63
2023-03-21T10:39:54.361Z,101080.81
2023-03-21T10:42:28.194Z,101074.28
2023-03-21T10:44:57.605Z,101072.13
2023-03-21T10:47:34.845Z,101073.75
2023-03-21T10:50:09.815Z,101072.94
2023-03-21T10:52:53.742Z,101072.66
2023-03-21T10:55:28.750Z,101077.50
2023-03-21T10:58:07.669Z,101081.88
2023-03-21T11:00:41.272Z,101085.56
2023-03-21T11:03:22.840Z,101073.44
2023-03-21T11:05:57.219Z,101071.44
2023-03-21T11:08:24.352Z,101077.00
2023-03-21T11:11:12.374Z,101073.34
2023-03-21T11:13:45.302Z,101073.19
2023-03-21T11:16:33.303Z,101071.28
2023-03-21T11:19:11.989Z,101077.38
2023-03-21T11:21:39.451Z,101078.50
2023-03-21T11:24:19.343Z,101076.53
2023-03-21T11:26:50.412Z,101083.19
2023-03-21T11:29:32.946Z,101081.50
2023-03-21T11:32:31.979Z,101076.94
2023-03-21T11:35:14.340Z,101080.13
2023-03-21T11:37:49.748Z,101073.00
2023-03-21T11:40:35.647Z,101070.09
2023-03-21T11:43:28.985Z,101061.66
2023-03-21T11:46:01.148Z,101056.47
2023-03-21T11:48:29.773Z,101055.63
2023-03-21T11:51:05.375Z,101048.13
2023-03-21T11:53:56.583Z,101053.44
2023-03-21T11:56:29.773Z,101053.84
2023-03-21T11:59:25.881Z,101053.16
2023-03-21T12:02:05.737Z,101059.50
2023-03-21T12:04:41.093Z,101060.13
2023-03-21T12:07:45.393Z,101056.81
2023-03-21T12:11:19.496Z,101056.88
2023-03-21T12:14:14.829Z,101052.81
2023-03-21T12:16:54.423Z,101050.06
2023-03-21T12:20:08.216Z,101036.19
2023-03-21T12:23:01.036Z,101034.75
2023-03-21T12:25:40.648Z,101025.31
2023-03-21T12:28:33.109Z,101024.91
2023-03-21T12:31:17.649Z,101031.47
2023-03-21T12:34:06.300Z,101024.75
2023-03-21T12:37:05.302Z,101019.59
2023-03-21T12:39:39.545Z,101017.44
2023-03-21T12:42:21.659Z,101008.19
2023-03-21T12:45:16.626Z,101019.66
2023-03-21T12:47:49.892Z,101008.03
2023-03-21T12:50:36.767Z,101008.50
2023-03-21T12:53:54.008Z,101005.63
2023-03-21T12:56:30.243Z,101006.41
2023-03-21T12:59:36.125Z,101012.13
2023-03-21T13:02:40.594Z,101001.22
2023-03-21T13:05:17.275Z,101010.78
2023-03-21T13:07:50.571Z,101011.44
2023-03-21T13:10:22.499Z,101004.44
2023-03-21T13:12:58.687Z,101007.34
2023-03-21T13:15:55.799Z,100998.28
2023-03-21T13:19:05.384Z,100999.34
2023-03-21T13:21:46.632Z,100993.66
2023-03-21T13:24:22.306Z,100991.91
2023-03-21T13:27:00.718Z,101000.41
2023-03-21T13:29:33.360Z,101004.34
2023-03-21T13:32:14.855Z,101001.50
2023-03-21T13:34:41.973Z,100998.25
2023-03-21T13:37:18.190Z,100999.00
2023-03-21T13:39:47.126Z,100999.28
2023-03-21T13:42:23.841Z,101001.38
2023-03-21T13:44:58.098Z,100997.44
2023-03-21T13:47:58.451Z,101016.47
2023-03-21T13:50:50.005Z,100996.41
2023-03-21T13:53:22.435Z,100989.53
2023-03-21T13:56:08.983Z,101007.53
2023-03-21T13:58:58.721Z,100997.91
2023-03-21T14:01:36.558Z,100983.78
2023-03-21T14:04:11.159Z,100978.84
2023-03-21T14:06:56.862Z,100997.78
2023-03-21T14:09:47.229Z,100978.41
2023-03-21T14:12:23.735Z,100978.72
2023-03-21T14:15:06.802Z,100968.56
2023-03-21T14:17:37.380Z,100964.84
2023-03-21T14:20:19.058Z,100968.25
2023-03-21T14:22:49.840Z,100968.63
2023-03-21T14:25:20.638Z,100959.47
2023-03-21T14:27:55.540Z,100959.00
2023-03-21T14:30:33.104Z,100958.03
2023-03-21T14:33:41.497Z,100965.19
2023-03-21T14:36:19.608Z,100964.97
2023-03-21T14:39:08.137Z,100960.44
2023-03-21T14:41:52.164Z,100952.88
2023-03-21T14:44:25.951Z,100944.47
2023-03-21T14:47:08.452Z,100943.63
2023-03-21T14:49:37.939Z,100946.22
2023-03-21T14:52:11.881Z,100941.56
2023-03-21T14:54:45.764Z,100946.03
2023-03-21T14:57:20.033Z,100945.84
2023-03-21T14:59:51.780Z,100945.84
2023-03-21T15:02:25.280Z,100944.75
2023-03-21T15:04:58.681Z,100938.19
2023-03-21T15:07:32.793Z,100936.69
2023-03-21T15:10:06.960Z,100940.69
2023-03-21T15:12:34.532Z,100936.84
2023-03-21T15:15:03.728Z,100939.16
2023-03-21T15:17:31.141Z,100935.56
2023-03-21T15:19:58.117Z,100937.00
2023-03-21T15:22:41.462Z,100926.53
2023-03-21T15:25:14.261Z,100940.81
2023-03-21T15:27:43.278Z,100924.31
2023-03-21T15:30:26.175Z,100918.97
2023-03-21T15:32:54.017Z,100914.31
2023-03-21T15:35:28.265Z,100912.72
2023-03-21T15:37:59.073Z,100914.16
2023-03-21T15:40:34.944Z,100917.41
2023-03-21T15:43:20.682Z,100924.59
2023-03-21T15:45:57.039Z,100916.44
2023-03-21T15:48:29.187Z,100926.44
2023-03-21T15:51:04.491Z,100930.88
2023-03-21T15:53:35.640Z,100922.16
2023-03-21T15:56:06.178Z,100924.53
2023-03-21T15:58:43.017Z,100926.38
2023-03-21T16:01:22.357Z,100919.13
2023-03-21T16:03:59.089Z,100921.97
2023-03-21T16:06:36.567Z,100918.84
2023-03-21T16:09:09.345Z,100919.41
2023-03-21T16:11:48.788Z,100885.31
2023-03-21T16:14:16.013Z,100912.06
2023-03-21T16:16:43.254Z,100903.31
2023-03-21T16:19:10.539Z,100905.66
2023-03-21T16:21:40.769Z,100912.41
2023-03-21T16:24:11.539Z,100904.38
2023-03-21T16:26:45.994Z,100904.50
2023-03-21T16:29:15.641Z,100895.97
2023-03-21T16:31:43.587Z,100899.88
2023-03-21T16:34:10.799Z,100896.88
2023-03-21T16:36:41.648Z,100903.25
2023-03-21T16:39:21.192Z,100899.16
2023-03-21T16:41:49.275Z,100894.00
2023-03-21T16:44:16.429Z,100903.81
2023-03-21T16:46:43.816Z,100906.16
2023-03-21T16:49:27.824Z,100907.25
2023-03-21T16:51:57.389Z,100901.91
2023-03-21T16:54:24.399Z,100894.13
2023-03-21T16:56:54.624Z,100898.84
2023-03-21T16:59:22.257Z,100900.91
2023-03-21T17:01:49.667Z,100897.19
2023-03-21T17:04:18.405Z,100901.09
2023-03-21T17:06:55.072Z,100898.09
2023-03-21T17:09:26.439Z,100904.03
2023-03-21T17:11:53.395Z,100887.75
2023-03-21T17:14:21.629Z,100896.13
2023-03-21T17:16:48.901Z,100896.75
2023-03-21T17:19:19.805Z,100898.91
2023-03-21T17:21:47.083Z,100899.97
2023-03-21T17:24:14.266Z,100900.53
2023-03-21T17:26:41.562Z,100899.81
2023-03-21T17:29:12.442Z,100906.66
2023-03-21T17:31:39.484Z,100902.56
2023-03-21T17:34:07.233Z,100913.84
2023-03-21T17:36:38.102Z,100903.69
2023-03-21T17:39:09.006Z,100907.13
2023-03-21T17:41:36.440Z,100916.53
2023-03-21T17:44:04.280Z,100916.84
2023-03-21T17:46:37.242Z,100917.91
2023-03-21T17:49:06.589Z,100925.09
2023-03-21T17:51:34.373Z,100933.94
2023-03-21T17:54:01.384Z,100930.63
2023-03-21T17:56:31.693Z,100929.28
2023-03-21T17:59:07.211Z,100940.69
2023-03-21T18:01:35.532Z,100936.41
2023-03-21T18:04:04.846Z,100928.78
2023-03-21T18:06:34.348Z,100932.88
2023-03-21T18:09:07.225Z,100930.06
2023-03-21T18:11:34.302Z,100924.03
2023-03-21T18:14:15.420Z,100929.47
2023-03-21T18:16:44.193Z,100911.75
2023-03-21T18:19:13.200Z,100916.38
2023-03-21T18:21:41.167Z,100913.16
2023-03-21T18:24:08.830Z,100913.47
2023-03-21T18:26:36.000Z,100919.25
2023-03-21T18:30:03.841Z,100909.31
2023-03-21T18:32:05.183Z,100914.34
2023-03-21T18:34:34.809Z,100910.88
2023-03-21T18:37:04.159Z,100907.47
2023-03-21T18:39:33.180Z,100905.47
2023-03-21T18:42:02.486Z,100915.63
2023-03-21T18:44:37.309Z,100909.25
2023-03-21T18:47:06.460Z,100908.50
2023-03-21T18:52:21.204Z,100911.97
2023-03-21T18:54:48.151Z,100902.50
2023-03-21T18:57:35.597Z,100905.66
2023-03-21T19:00:17.181Z,100913.91
2023-03-21T19:02:49.074Z,100918.47
2023-03-21T19:05:21.142Z,100924.69
2023-03-21T19:07:50.025Z,100918.94
2023-03-21T19:10:20.815Z,100924.31
2023-03-21T19:12:50.772Z,100925.88
2023-03-21T19:15:22.157Z,100921.44
2023-03-21T19:18:30.725Z,100913.22
2023-03-21T19:20:46.909Z,100917.22
2023-03-21T19:23:14.709Z,100916.53
2023-03-21T19:25:43.810Z,100912.22
2023-03-21T19:28:10.820Z,100916.06
2023-03-21T19:30:38.601Z,100919.81
2023-03-21T19:33:06.353Z,100919.19
2023-03-21T19:35:37.343Z,100918.72
2023-03-21T19:38:05.457Z,100922.38
2023-03-21T19:40:32.656Z,100915.44
2023-03-21T19:43:14.253Z,100923.13
2023-03-21T19:45:49.811Z,100933.38
2023-03-21T19:48:17.396Z,100924.66
2023-03-21T19:51:20.020Z,100927.28
2023-03-21T19:53:33.392Z,100930.03
2023-03-21T19:56:03.676Z,100926.97
2023-03-21T19:58:31.349Z,100928.81
2023-03-21T20:00:58.944Z,100919.44
2023-03-21T20:03:26.333Z,100933.34
2023-03-21T20:06:07.136Z,100924.53
2023-03-21T20:08:57.936Z,100924.53
2023-03-21T20:11:22.978Z,100925.56
2023-03-21T20:13:49.907Z,100917.94
2023-03-21T20:16:18.315Z,100920.63
2023-03-21T20:18:46.272Z,100913.66
2023-03-21T20:21:18.025Z,100912.00
2023-03-21T20:23:51.867Z,100908.16
2023-03-21T20:26:19.207Z,100920.91
2023-03-21T20:28:56.475Z,100910.84
2023-03-21T20:31:27.182Z,100905.34
2023-03-21T20:33:54.331Z,100890.59
2023-03-21T20:36:40.504Z,100894.94
2023-03-21T20:39:08.312Z,100887.75
2023-03-21T20:41:35.580Z,100891.84
2023-03-21T20:46:50.708Z,100895.94
2023-03-21T20:49:19.865Z,100892.22
2023-03-21T20:52:47.813Z,100883.66
2023-03-21T20:54:35.000Z,100887.56
2023-03-21T20:57:02.557Z,100887.34
2023-03-21T20:59:29.725Z,100891.06
2023-03-21T21:01:57.717Z,100898.59
2023-03-21T21:04:46.916Z,100893.47
2023-03-21T21:07:17.651Z,100887.94
2023-03-21T21:09:45.420Z,100882.00
2023-03-21T21:12:14.392Z,100878.78
2023-03-21T21:14:42.445Z,100872.38
2023-03-21T21:17:28.299Z,100871.03
2023-03-21T21:19:57.292Z,100872.81
2023-03-21T21:22:24.253Z,100867.31
2023-03-21T21:24:51.492Z,100866.53
2023-03-21T21:27:18.425Z,100862.03
2023-03-21T21:29:47.722Z,100871.44
2023-03-21T21:32:16.714Z,100864.91
2023-03-21T21:34:43.753Z,100856.53
2023-03-21T21:37:10.720Z,100862.44
2023-03-21T21:39:38.815Z,100843.66
2023-03-21T21:42:06.129Z,100848.97
2023-03-21T21:44:33.092Z,100845.84
2023-03-21T21:47:00.422Z,100836.31
2023-03-21T21:49:28.169Z,100844.06
2023-03-21T21:51:56.356Z,100831.41
2023-03-21T21:54:23.362Z,100829.78
2023-03-21T21:56:54.138Z,100836.09
2023-03-21T21:59:22.216Z,100837.97
2023-03-21T22:01:51.361Z,100834.88
2023-03-21T22:04:24.808Z,100828.13
2023-03-21T22:06:52.746Z,100828.13
2023-03-21T22:09:19.720Z,100829.75
2023-03-21T22:11:46.737Z,100828.94
2023-03-21T22:14:13.678Z,100817.31
2023-03-21T22:16:41.147Z,100821.41
2023-03-21T22:19:08.094Z,100819.75
2023-03-21T22:21:35.376Z,100805.50
2023-03-21T22:24:02.289Z,100807.69
2023-03-21T22:26:29.583Z,100806.31
2023-03-21T22:28:56.594Z,100804.47
2023-03-21T22:31:25.991Z,100797.91
2023-03-21T22:33:53.400Z,100786.09
2023-03-21T22:36:20.620Z,100796.72
2023-03-21T22:38:47.891Z,100791.56
2023-03-21T22:41:14.881Z,100794.66
2023-03-21T22:43:42.153Z,100790.75
2023-03-21T22:46:09.233Z,100782.38
2023-03-21T22:48:36.298Z,100785.69
2023-03-21T22:52:24.130Z,100779.94
2023-03-21T22:54:51.625Z,100773.00
2023-03-21T22:57:20.693Z,100776.88
2023-03-21T22:59:47.920Z,100775.44
2023-03-21T23:02:15.624Z,100772.97
2023-03-21T23:04:43.057Z,100766.03
2023-03-21T23:07:10.613Z,100768.31
2023-03-21T23:09:37.691Z,100760.97
2023-03-21T23:12:04.862Z,100758.31
2023-03-21T23:14:32.100Z,100757.66
2023-03-21T23:17:00.279Z,100749.69
2023-03-21T23:19:28.823Z,100747.28
2023-03-21T23:21:56.010Z,100754.25
2023-03-21T23:24:23.606Z,100741.34
2023-03-21T23:26:50.842Z,100746.50
2023-03-21T23:29:17.858Z,100741.56
2023-03-21T23:31:45.033Z,100742.75
2023-03-21T23:34:13.202Z,100749.31
2023-03-21T23:36:40.944Z,100745.47
2023-03-21T23:39:09.350Z,100736.28
2023-03-21T23:41:36.458Z,100737.91
2023-03-21T23:44:04.439Z,100738.09
2023-03-21T23:46:31.926Z,100741.59
2023-03-21T23:48:59.113Z,100733.75
2023-03-21T23:51:26.199Z,100720.91
2023-03-21T23:53:53.384Z,100731.22
2023-03-21T23:56:26.961Z,100723.22
2023-03-21T23:58:54.373Z,100709.41
